Jeffersonville, New York
Current Conditions -  °F | °C
As of 3:55 PM on Friday 21 Nov 2014 (Local Time) from KMSV Reporting Station
Clear Clear  
Wind Chill: 13°   Ceiling: Unl
Heat Index: 25°   Visibility: 10mi
Dew Point:   Wind: 13mph
Humidity: 46%   Direction: 300°WNW
Pressure: 30.32"   Gusts: 22mph
Location:  41.78°N, 74.93°W
Report Text: KMSV 212055Z AUTO 30011G19KT 10SM CLR M04/M14 A3032 RMK AO1 52030
Loading
Personal Weather Stations






























Interactive Weather Map New forecast layout! Learn more

10-Day Weather Forecast

Advertisements
Track Severe Weather on mobile